D25

Manitowish Waters Airport

Manitowish Waters, Wisconsin, USA
METAR KD25 232215Z AUTO 27003KT 10SM CLR 17/M03 A3014 RMK AO2 T01651030
Observed Flight Rules
Apr-23 @ 22:15 UTC (27 minutes ago) Visual Flight Rules
Wind Visibility Clouds
270° at 3 knots 10 miles
  • Clear skies
Temperatures Readings
Current 17°C / 63°F
Dewpoint -3°C / 27°F
Humidity 25%
Altimeter 30.14" Hg
Pressure 1021 hPa
Elevation 491
METAR KD25 232215Z AUTO 27003KT 10SM CLR 17/M03 A3014 RMK AO2 T01651030
Observed Flight Rules
Apr-23 @ 22:15 UTC
(27 minutes ago)
VFR
Wind Visibility
270° at 3 knots 10 miles
Clouds
  • Clear skies
Temperature Dewpoint
17°C / 63°F -3°C / 27°F
Humidity Altimeter Pressure
25% 30.14" Hg 1021 hPa